createdAt,value
2022-11-14T00:00:50.010Z,15.30
2022-11-14T00:03:35.640Z,20.65
2022-11-14T00:06:21.839Z,16.48
2022-11-14T00:09:07.782Z,19.77
2022-11-14T00:11:53.817Z,18.30
2022-11-14T00:14:39.927Z,19.17
2022-11-14T00:17:26.272Z,18.20
2022-11-14T00:20:12.680Z,20.30
2022-11-14T00:22:58.730Z,18.83
2022-11-14T00:25:45.125Z,19.70
2022-11-14T00:28:31.357Z,15.73
2022-11-14T00:31:17.161Z,18.30
2022-11-14T00:34:03.285Z,21.63
2022-11-14T00:36:49.117Z,16.70
2022-11-14T00:39:35.134Z,17.30
2022-11-14T00:42:20.845Z,17.88
2022-11-14T00:45:07.261Z,17.70
2022-11-14T00:47:53.771Z,20.55
2022-11-14T00:50:40.151Z,18.33
2022-11-14T00:53:26.330Z,20.25
2022-11-14T00:56:12.765Z,22.58
2022-11-14T00:58:58.947Z,18.25
2022-11-14T01:01:44.739Z,19.23
2022-11-14T01:04:30.207Z,18.45
2022-11-14T01:07:16.273Z,18.13
2022-11-14T01:10:02.075Z,16.27
2022-11-14T01:12:48.433Z,19.13
2022-11-14T01:15:33.988Z,18.90
2022-11-14T01:18:20.930Z,17.67
2022-11-14T01:21:08.543Z,19.33
2022-11-14T01:23:54.111Z,17.00
2022-11-14T01:26:40.352Z,15.55
2022-11-14T01:29:26.310Z,14.93
2022-11-14T01:32:12.378Z,15.35
2022-11-14T01:34:58.592Z,14.80
2022-11-14T01:37:44.692Z,16.50
2022-11-14T01:40:30.740Z,17.55
2022-11-14T01:43:19.842Z,17.15
2022-11-14T01:46:07.165Z,19.45
2022-11-14T01:49:02.582Z,18.90
2022-11-14T01:52:00.230Z,19.58
2022-11-14T01:54:47.908Z,18.48
2022-11-14T01:57:39.538Z,17.05
2022-11-14T02:00:25.339Z,20.42
2022-11-14T02:03:12.863Z,22.20
2022-11-14T02:05:58.991Z,21.10
2022-11-14T02:08:45.419Z,20.80
2022-11-14T02:11:31.905Z,19.10
2022-11-14T02:14:17.784Z,18.92
2022-11-14T02:17:27.995Z,20.80
2022-11-14T02:20:12.825Z,18.75
2022-11-14T02:22:59.275Z,20.40
2022-11-14T02:25:45.004Z,19.35
2022-11-14T02:28:30.824Z,16.85
2022-11-14T02:31:16.929Z,20.13
2022-11-14T02:34:02.578Z,19.65
2022-11-14T02:36:48.819Z,20.40
2022-11-14T02:39:34.610Z,23.13
2022-11-14T02:42:20.857Z,20.35
2022-11-14T02:45:07.321Z,20.75
2022-11-14T02:47:53.296Z,21.63
2022-11-14T02:50:39.485Z,23.38
2022-11-14T02:53:25.597Z,24.52
2022-11-14T02:56:11.798Z,21.52
2022-11-14T02:58:57.819Z,20.80
2022-11-14T03:01:43.389Z,22.33
2022-11-14T03:04:29.271Z,26.85
2022-11-14T03:07:15.153Z,22.02
2022-11-14T03:10:01.329Z,20.48
2022-11-14T03:12:47.314Z,22.00
2022-11-14T03:15:33.267Z,26.67
2022-11-14T03:18:18.839Z,21.95
2022-11-14T03:21:14.056Z,31.65
2022-11-14T03:23:59.850Z,25.92
2022-11-14T03:26:45.559Z,30.05
2022-11-14T03:29:31.315Z,34.10
2022-11-14T03:32:16.856Z,33.83
2022-11-14T03:35:05.391Z,25.58
2022-11-14T03:37:56.032Z,30.45
2022-11-14T03:40:42.032Z,41.17
2022-11-14T03:43:34.880Z,26.27
2022-11-14T03:46:20.818Z,24.02
2022-11-14T03:49:06.743Z,24.35
2022-11-14T03:51:52.501Z,25.80
2022-11-14T03:54:38.656Z,29.00
2022-11-14T03:57:24.629Z,26.77
2022-11-14T04:00:10.777Z,27.52
2022-11-14T04:02:57.232Z,24.52
2022-11-14T04:05:46.354Z,25.60
2022-11-14T04:08:32.551Z,21.08
2022-11-14T04:11:19.256Z,24.20
2022-11-14T04:14:05.343Z,26.15
2022-11-14T04:16:51.183Z,24.85
2022-11-14T04:19:37.398Z,22.63
2022-11-14T04:22:23.405Z,21.45
2022-11-14T04:25:10.229Z,19.63
2022-11-14T04:27:56.157Z,21.00
2022-11-14T04:30:41.980Z,22.92
2022-11-14T04:33:27.681Z,15.88
2022-11-14T04:36:13.568Z,20.00
2022-11-14T04:38:59.427Z,18.83
2022-11-14T04:41:45.198Z,19.13
2022-11-14T04:44:31.565Z,16.67
2022-11-14T04:47:17.260Z,19.95
2022-11-14T04:50:04.132Z,16.80
2022-11-14T04:52:53.894Z,19.05
2022-11-14T04:55:40.180Z,20.80
2022-11-14T04:58:26.683Z,20.52
2022-11-14T05:01:13.756Z,25.02
2022-11-14T05:03:59.807Z,23.80
2022-11-14T05:06:45.686Z,23.83
2022-11-14T05:09:31.734Z,20.95
2022-11-14T05:12:17.622Z,23.67
2022-11-14T05:15:03.006Z,21.73
2022-11-14T05:17:48.740Z,22.52
2022-11-14T05:20:34.889Z,17.75
2022-11-14T05:23:22.407Z,20.20
2022-11-14T05:26:10.137Z,18.67
2022-11-14T05:28:55.941Z,19.95
2022-11-14T05:31:41.856Z,18.95
2022-11-14T05:34:28.465Z,21.45
2022-11-14T05:37:14.082Z,18.90
2022-11-14T05:40:00.003Z,18.23
2022-11-14T05:42:45.849Z,16.48
2022-11-14T05:45:32.129Z,16.27
2022-11-14T05:48:18.309Z,16.65
2022-11-14T05:51:05.477Z,16.85
2022-11-14T05:53:52.338Z,13.43
2022-11-14T05:56:38.620Z,13.20
2022-11-14T05:59:24.680Z,13.23
2022-11-14T06:02:10.812Z,14.52
2022-11-14T06:04:56.491Z,14.75
2022-11-14T06:07:42.691Z,16.05
2022-11-14T06:10:28.690Z,19.55
2022-11-14T06:13:16.279Z,17.65
2022-11-14T06:16:06.279Z,19.00
2022-11-14T06:18:55.420Z,15.95
2022-11-14T06:21:41.360Z,15.50
2022-11-14T06:24:27.821Z,18.23
2022-11-14T06:27:14.312Z,15.05
2022-11-14T06:30:00.046Z,17.20
2022-11-14T06:32:46.196Z,17.48
2022-11-14T06:35:33.701Z,17.20
2022-11-14T06:38:19.692Z,17.45
2022-11-14T06:41:12.954Z,19.48
2022-11-14T06:43:58.662Z,17.75
2022-11-14T06:46:44.350Z,18.58
2022-11-14T06:49:30.593Z,17.50
2022-11-14T06:52:16.159Z,17.30
2022-11-14T06:55:02.126Z,18.80
2022-11-14T06:57:54.157Z,18.15
2022-11-14T07:00:40.127Z,16.23
2022-11-14T07:03:26.123Z,17.73
2022-11-14T07:06:16.802Z,16.40
2022-11-14T07:09:03.187Z,14.00
2022-11-14T07:11:48.825Z,17.13
2022-11-14T07:14:35.101Z,16.95
2022-11-14T07:17:21.117Z,15.77
2022-11-14T07:20:07.778Z,17.27
2022-11-14T07:22:53.708Z,17.42
2022-11-14T07:25:39.952Z,19.27
2022-11-14T07:28:25.837Z,24.00
2022-11-14T07:31:13.524Z,29.48
2022-11-14T07:33:59.213Z,51.47
2022-11-14T07:36:45.410Z,31.73
2022-11-14T07:39:31.161Z,35.28
2022-11-14T07:42:17.259Z,29.70
2022-11-14T07:45:03.165Z,18.65
2022-11-14T07:47:48.965Z,16.65
2022-11-14T07:50:34.557Z,18.33
2022-11-14T07:53:20.739Z,20.65
2022-11-14T07:56:07.765Z,17.92
2022-11-14T07:58:53.864Z,24.08
2022-11-14T08:01:39.953Z,24.58
2022-11-14T08:04:26.397Z,25.90
2022-11-14T08:07:12.835Z,24.58
2022-11-14T08:09:58.989Z,32.72
2022-11-14T08:12:45.494Z,33.78
2022-11-14T08:15:31.667Z,21.90
2022-11-14T08:18:32.347Z,17.85
2022-11-14T08:21:21.041Z,21.98
2022-11-14T08:24:07.176Z,15.35
2022-11-14T08:26:55.292Z,19.60
2022-11-14T08:29:42.978Z,30.95
2022-11-14T08:32:29.708Z,23.33
2022-11-14T08:35:15.761Z,19.50
2022-11-14T08:38:04.966Z,21.30
2022-11-14T08:40:50.649Z,17.10
2022-11-14T08:43:36.420Z,24.70
2022-11-14T08:46:22.643Z,22.48
2022-11-14T08:49:08.884Z,28.95
2022-11-14T08:51:54.473Z,22.67
2022-11-14T08:54:40.655Z,25.90
2022-11-14T08:57:26.322Z,20.25
2022-11-14T09:00:12.647Z,25.98
2022-11-14T09:02:58.710Z,17.20
2022-11-14T09:05:45.141Z,26.30
2022-11-14T09:08:30.981Z,18.70
2022-11-14T09:11:19.333Z,24.88
2022-11-14T09:14:10.966Z,15.90
2022-11-14T09:17:05.529Z,17.92
2022-11-14T09:19:52.045Z,35.20
2022-11-14T09:22:46.075Z,16.98
2022-11-14T09:25:32.595Z,15.25
2022-11-14T09:28:22.178Z,24.67
2022-11-14T09:31:13.645Z,19.17
2022-11-14T09:33:59.958Z,19.73
2022-11-14T09:36:47.255Z,25.23
2022-11-14T09:39:33.379Z,49.33
2022-11-14T09:42:47.136Z,26.85
2022-11-14T09:45:33.506Z,22.52
2022-11-14T09:48:22.031Z,15.77
2022-11-14T09:51:20.423Z,20.65
2022-11-14T09:54:26.974Z,17.75
2022-11-14T09:57:17.321Z,19.65
2022-11-14T10:00:04.115Z,31.25
2022-11-14T10:02:56.999Z,12.93
2022-11-14T10:05:54.889Z,14.23
2022-11-14T10:09:18.162Z,19.02
2022-11-14T10:12:08.969Z,23.80
2022-11-14T10:15:07.757Z,15.15
2022-11-14T10:18:13.612Z,15.98
2022-11-14T10:21:13.942Z,15.20
2022-11-14T10:24:13.754Z,17.38
2022-11-14T10:27:07.180Z,16.48
2022-11-14T10:29:55.938Z,15.57
2022-11-14T10:33:03.071Z,13.50
2022-11-14T10:36:17.278Z,12.52
2022-11-14T10:39:13.315Z,14.93
2022-11-14T10:42:07.650Z,15.13
2022-11-14T10:45:02.710Z,15.10
2022-11-14T10:48:23.529Z,15.57
2022-11-14T10:51:41.333Z,13.32
2022-11-14T10:55:02.216Z,15.77
2022-11-14T10:57:56.524Z,15.70
2022-11-14T11:00:46.339Z,14.32
2022-11-14T11:03:51.358Z,18.73
2022-11-14T11:06:45.588Z,16.70
2022-11-14T11:09:59.092Z,17.05
2022-11-14T11:12:55.328Z,14.18
2022-11-14T11:15:51.630Z,16.15
2022-11-14T11:18:47.365Z,16.02
2022-11-14T11:21:50.290Z,12.90
2022-11-14T11:27:29.396Z,12.75
2022-11-14T11:30:19.717Z,15.98
2022-11-14T11:33:26.415Z,15.82
2022-11-14T11:36:17.331Z,15.15
2022-11-14T11:42:13.251Z,15.07
2022-11-14T11:45:01.049Z,13.30
2022-11-14T11:48:10.468Z,12.88
2022-11-14T11:51:04.199Z,13.40
2022-11-14T11:54:10.132Z,13.32
2022-11-14T11:57:06.304Z,13.00
2022-11-14T12:00:01.744Z,17.08
2022-11-14T12:02:55.605Z,15.13
2022-11-14T12:06:07.943Z,13.55
2022-11-14T12:09:09.354Z,15.25
2022-11-14T12:11:58.492Z,13.75
2022-11-14T12:15:02.073Z,12.75
2022-11-14T12:17:58.544Z,13.35
2022-11-14T12:21:03.145Z,15.88
2022-11-14T12:23:57.685Z,13.35
2022-11-14T12:27:28.243Z,15.93
2022-11-14T12:38:26.760Z,16.48
2022-11-14T12:41:21.423Z,13.02
2022-11-14T12:44:37.409Z,14.30
2022-11-14T13:22:24.526Z,12.77
2022-11-14T13:25:42.497Z,12.95
2022-11-14T13:44:09.783Z,13.90
2022-11-14T13:47:19.179Z,13.23
2022-11-14T13:50:26.573Z,14.48
2022-11-14T13:53:24.016Z,14.07
2022-11-14T13:56:13.573Z,16.67
2022-11-14T13:59:24.343Z,15.95
2022-11-14T14:02:34.513Z,16.10
2022-11-14T14:08:41.502Z,16.20
2022-11-14T14:11:43.333Z,14.65
2022-11-14T14:14:54.991Z,14.38
2022-11-14T14:18:04.395Z,18.20
2022-11-14T14:20:59.080Z,20.10
2022-11-14T14:24:13.188Z,26.00
2022-11-14T14:27:17.631Z,26.65
2022-11-14T14:30:11.551Z,22.05
2022-11-14T14:33:23.953Z,19.92
2022-11-14T14:36:26.995Z,17.52
2022-11-14T14:39:22.144Z,21.45
2022-11-14T14:42:11.510Z,18.92
2022-11-14T14:44:57.758Z,16.23
2022-11-14T14:47:48.728Z,15.60
2022-11-14T14:50:51.622Z,16.02
2022-11-14T14:53:37.414Z,15.05
2022-11-14T14:56:27.067Z,13.90
2022-11-14T14:59:17.627Z,16.00
2022-11-14T15:04:49.558Z,19.00
2022-11-14T15:07:35.589Z,18.27
2022-11-14T15:10:31.109Z,18.40
2022-11-14T15:13:19.112Z,21.98
2022-11-14T15:16:05.111Z,23.77
2022-11-14T15:18:51.929Z,27.95
2022-11-14T15:21:37.849Z,27.55
2022-11-14T15:24:24.211Z,27.80
2022-11-14T15:27:17.813Z,34.78
2022-11-14T15:30:06.617Z,34.13
2022-11-14T15:32:57.174Z,19.25
2022-11-14T15:35:43.256Z,20.25
2022-11-14T15:38:44.929Z,17.83
2022-11-14T15:41:34.708Z,19.20
2022-11-14T15:44:33.649Z,18.25
2022-11-14T15:47:30.076Z,16.40
2022-11-14T15:50:15.653Z,18.35
2022-11-14T15:53:02.910Z,16.17
2022-11-14T15:55:49.128Z,19.77
2022-11-14T15:58:44.215Z,18.38
2022-11-14T16:01:34.001Z,22.23
2022-11-14T16:04:21.194Z,17.65
2022-11-14T16:07:06.979Z,21.27
2022-11-14T16:09:53.186Z,21.50
2022-11-14T16:12:39.074Z,23.65
2022-11-14T16:15:25.186Z,24.95
2022-11-14T16:18:11.312Z,28.48
2022-11-14T16:20:59.524Z,24.38
2022-11-14T16:23:45.276Z,24.50
2022-11-14T16:26:33.729Z,26.05
2022-11-14T16:29:19.341Z,27.67
2022-11-14T16:32:04.943Z,26.55
2022-11-14T16:34:51.156Z,34.05
2022-11-14T16:37:37.417Z,29.65
2022-11-14T16:40:27.140Z,28.23
2022-11-14T16:43:17.197Z,30.97
2022-11-14T16:46:06.838Z,30.02
2022-11-14T16:48:53.282Z,25.67
2022-11-14T16:51:48.430Z,26.45
2022-11-14T16:54:35.749Z,27.45
2022-11-14T16:57:24.329Z,26.20
2022-11-14T17:00:13.777Z,27.70
2022-11-14T17:03:00.912Z,28.13
2022-11-14T17:05:48.312Z,29.38
2022-11-14T17:08:34.294Z,27.15
2022-11-14T17:11:20.292Z,25.20
2022-11-14T17:14:06.083Z,29.27
2022-11-14T17:16:52.187Z,27.77
2022-11-14T17:19:48.553Z,29.35
2022-11-14T17:22:34.837Z,27.35
2022-11-14T17:25:20.735Z,28.92
2022-11-14T17:28:06.574Z,32.70
2022-11-14T17:30:54.431Z,28.70
2022-11-14T17:33:43.520Z,32.03
2022-11-14T17:36:30.665Z,24.95
2022-11-14T17:39:20.157Z,29.10
2022-11-14T17:42:12.706Z,24.10
2022-11-14T17:45:01.273Z,27.33
2022-11-14T17:47:46.835Z,27.55
2022-11-14T17:50:37.465Z,23.02
2022-11-14T17:53:23.730Z,28.27
2022-11-14T17:56:22.906Z,25.17
2022-11-14T17:59:08.854Z,24.53
2022-11-14T18:01:57.755Z,24.73
2022-11-14T18:04:44.032Z,23.52
2022-11-14T18:07:33.231Z,27.05
2022-11-14T18:10:19.159Z,29.33
2022-11-14T18:13:05.310Z,27.38
2022-11-14T18:15:51.120Z,26.42
2022-11-14T18:18:36.882Z,21.73
2022-11-14T18:21:24.198Z,24.40
2022-11-14T18:24:10.768Z,27.08
2022-11-14T18:26:57.003Z,21.80
2022-11-14T18:29:43.091Z,23.30
2022-11-14T18:32:29.194Z,23.63
2022-11-14T18:35:14.852Z,23.73
2022-11-14T18:38:00.766Z,18.52
2022-11-14T18:40:46.895Z,19.13
2022-11-14T18:43:33.348Z,20.50
2022-11-14T18:46:20.885Z,17.52
2022-11-14T18:49:06.928Z,12.65
2022-11-14T18:51:52.818Z,18.42
2022-11-14T18:54:41.767Z,15.90
2022-11-14T18:57:27.416Z,16.00
2022-11-14T19:00:14.383Z,13.20
2022-11-14T19:03:04.816Z,15.90
2022-11-14T19:12:31.332Z,15.50
2022-11-14T19:15:33.099Z,12.63
2022-11-14T19:18:22.926Z,18.92
2022-11-14T19:21:19.627Z,15.10
2022-11-14T19:24:08.982Z,17.63
2022-11-14T19:27:06.983Z,12.75
2022-11-14T19:30:06.090Z,18.13
2022-11-14T19:32:52.034Z,11.05
2022-11-14T19:35:41.410Z,18.23
2022-11-14T19:38:30.638Z,18.85
2022-11-14T19:41:26.052Z,23.50
2022-11-14T19:44:17.533Z,24.25
2022-11-14T19:47:03.836Z,15.95
2022-11-14T19:49:52.711Z,11.43
2022-11-14T19:52:48.255Z,10.40
2022-11-14T19:55:50.191Z,11.43
2022-11-14T19:58:42.613Z,7.70
2022-11-14T20:01:44.359Z,7.40
2022-11-14T20:04:33.259Z,10.15
2022-11-14T20:07:25.993Z,7.03
2022-11-14T20:10:17.993Z,8.52
2022-11-14T20:13:10.031Z,6.75
2022-11-14T20:19:19.748Z,5.43
2022-11-14T20:22:14.714Z,5.60
2022-11-14T20:25:17.251Z,5.05
2022-11-14T20:28:05.252Z,6.30
2022-11-14T20:30:59.455Z,6.65
2022-11-14T20:33:49.910Z,5.45
2022-11-14T20:37:08.896Z,5.32
2022-11-14T20:39:43.294Z,7.10
2022-11-14T20:42:32.588Z,5.95
2022-11-14T20:45:18.747Z,5.53
2022-11-14T20:48:09.090Z,5.07
2022-11-14T20:51:14.097Z,4.82
2022-11-14T20:54:00.934Z,6.18
2022-11-14T21:00:08.035Z,4.43
2022-11-14T21:02:54.045Z,5.63
2022-11-14T21:05:40.041Z,5.10
2022-11-14T21:08:25.950Z,5.20
2022-11-14T21:11:13.733Z,4.05
2022-11-14T21:13:59.534Z,3.13
2022-11-14T21:16:45.306Z,3.92
2022-11-14T21:19:31.160Z,3.38
2022-11-14T21:22:16.824Z,3.72
2022-11-14T21:25:03.656Z,4.20
2022-11-14T21:27:49.419Z,4.00
2022-11-14T21:30:35.317Z,3.78
2022-11-14T21:33:21.196Z,6.10
2022-11-14T21:36:42.796Z,4.25
2022-11-14T21:39:17.785Z,2.90
2022-11-14T21:42:03.954Z,3.72
2022-11-14T21:45:22.304Z,3.20
2022-11-14T21:48:09.717Z,3.95
2022-11-14T21:51:02.031Z,3.63
2022-11-14T21:53:49.521Z,3.85
2022-11-14T21:56:36.172Z,3.20
2022-11-14T21:59:40.740Z,5.05
2022-11-14T22:06:41.971Z,3.47
2022-11-14T22:09:28.463Z,4.05
2022-11-14T22:12:14.513Z,4.13
2022-11-14T22:15:00.235Z,3.15
2022-11-14T22:17:46.195Z,3.92
2022-11-14T22:20:32.003Z,4.50
2022-11-14T22:23:17.960Z,4.07
2022-11-14T22:26:04.148Z,3.80
2022-11-14T22:28:50.405Z,6.18
2022-11-14T22:32:09.992Z,3.15
2022-11-14T22:34:43.900Z,3.97
2022-11-14T22:37:29.663Z,4.07
2022-11-14T22:40:15.846Z,5.00
2022-11-14T22:43:01.418Z,4.50
2022-11-14T22:45:52.266Z,3.47
2022-11-14T22:48:40.768Z,6.13
2022-11-14T22:51:27.512Z,5.93
2022-11-14T22:54:14.249Z,6.05
2022-11-14T22:57:00.349Z,4.97
2022-11-14T22:59:46.301Z,3.33
2022-11-14T23:02:32.876Z,5.63
2022-11-14T23:05:18.764Z,4.78
2022-11-14T23:08:05.448Z,7.05
2022-11-14T23:11:03.076Z,6.43
2022-11-14T23:13:50.776Z,5.05
2022-11-14T23:16:36.540Z,4.65
2022-11-14T23:19:25.734Z,4.57
2022-11-14T23:22:12.224Z,3.50
2022-11-14T23:24:58.611Z,4.32
2022-11-14T23:27:44.620Z,3.72
2022-11-14T23:30:32.497Z,3.10
2022-11-14T23:33:18.521Z,6.53
2022-11-14T23:36:04.651Z,5.43
2022-11-14T23:38:53.320Z,4.28
2022-11-14T23:41:39.349Z,6.95
2022-11-14T23:44:24.938Z,5.78
2022-11-14T23:47:10.844Z,5.47
2022-11-14T23:49:56.747Z,7.05
2022-11-14T23:52:45.168Z,6.45
2022-11-14T23:55:31.087Z,4.60
2022-11-14T23:58:17.144Z,7.90
